createdAt,value
2018-12-02T00:00:11.318Z,8.73
2018-12-02T00:02:38.731Z,8.74
2018-12-02T00:05:06.182Z,8.77
2018-12-02T00:07:33.580Z,8.82
2018-12-02T00:10:01.036Z,8.83
2018-12-02T00:12:28.441Z,8.77
2018-12-02T00:14:55.849Z,8.72
2018-12-02T00:17:23.255Z,8.72
2018-12-02T00:19:50.756Z,8.67
2018-12-02T00:22:18.165Z,8.67
2018-12-02T00:24:45.772Z,8.69
2018-12-02T00:27:13.198Z,8.74
2018-12-02T00:29:40.633Z,8.80
2018-12-02T00:32:08.318Z,8.83
2018-12-02T00:34:35.771Z,8.81
2018-12-02T00:37:03.546Z,8.71
2018-12-02T00:39:30.995Z,8.61
2018-12-02T00:41:58.939Z,8.63
2018-12-02T00:44:26.408Z,8.56
2018-12-02T00:46:53.847Z,8.51
2018-12-02T00:49:21.276Z,8.47
2018-12-02T00:51:48.671Z,8.50
2018-12-02T00:54:16.098Z,8.53
2018-12-02T00:56:43.508Z,8.58
2018-12-02T00:59:11.033Z,8.60
2018-12-02T01:01:38.433Z,8.62
2018-12-02T01:04:05.860Z,8.57
2018-12-02T01:06:33.327Z,8.58
2018-12-02T01:09:00.735Z,8.55
2018-12-02T01:11:28.157Z,8.60
2018-12-02T01:13:55.544Z,8.64
2018-12-02T01:16:22.944Z,8.68
2018-12-02T01:18:50.357Z,8.66
2018-12-02T01:21:17.832Z,8.61
2018-12-02T01:23:45.215Z,8.64
2018-12-02T01:26:12.625Z,8.70
2018-12-02T01:28:40.102Z,8.71
2018-12-02T01:31:07.480Z,8.71
2018-12-02T01:33:35.038Z,8.67
2018-12-02T01:36:02.469Z,8.64
2018-12-02T01:38:29.864Z,8.71
2018-12-02T01:40:57.263Z,8.74
2018-12-02T01:43:24.670Z,8.76
2018-12-02T01:45:52.213Z,8.73
2018-12-02T01:48:19.617Z,8.66
2018-12-02T01:50:47.093Z,8.70
2018-12-02T01:53:14.496Z,8.73
2018-12-02T01:55:42.096Z,8.70
2018-12-02T01:58:09.773Z,8.67
2018-12-02T02:00:37.204Z,8.64
2018-12-02T02:03:05.343Z,8.64
2018-12-02T02:05:32.817Z,8.61
2018-12-02T02:08:00.229Z,8.61
2018-12-02T02:10:27.610Z,8.57
2018-12-02T02:12:55.077Z,8.58
2018-12-02T02:15:22.486Z,8.56
2018-12-02T02:17:49.883Z,8.55
2018-12-02T02:20:17.290Z,8.56
2018-12-02T02:22:44.773Z,8.54
2018-12-02T02:25:12.234Z,8.56
2018-12-02T02:27:39.639Z,8.56
2018-12-02T02:30:07.888Z,8.53
2018-12-02T02:32:35.413Z,8.51
2018-12-02T02:35:04.524Z,8.51
2018-12-02T02:37:31.960Z,8.56
2018-12-02T02:39:59.410Z,8.57
2018-12-02T02:42:26.855Z,8.65
2018-12-02T02:44:54.254Z,8.72
2018-12-02T02:47:21.783Z,8.73
2018-12-02T02:49:49.200Z,8.73
2018-12-02T02:52:16.594Z,8.72
2018-12-02T02:54:44.181Z,8.76
2018-12-02T02:57:11.572Z,8.81
2018-12-02T02:59:38.973Z,8.77
2018-12-02T03:02:06.380Z,8.79
2018-12-02T03:04:33.770Z,8.78
2018-12-02T03:07:01.181Z,8.80
2018-12-02T03:09:28.594Z,8.77
2018-12-02T03:11:55.999Z,8.84
2018-12-02T03:14:23.405Z,8.88
2018-12-02T03:16:50.802Z,8.90
2018-12-02T03:19:18.193Z,8.91
2018-12-02T03:21:45.601Z,8.89
2018-12-02T03:24:13.003Z,8.86
2018-12-02T03:26:40.411Z,8.85
2018-12-02T03:29:07.817Z,8.83
2018-12-02T03:31:35.236Z,8.83
2018-12-02T03:34:02.628Z,8.79
2018-12-02T03:36:30.033Z,8.76
2018-12-02T03:38:57.438Z,8.71
2018-12-02T03:41:24.854Z,8.69
2018-12-02T03:43:52.491Z,8.69
2018-12-02T03:46:19.874Z,8.63
2018-12-02T03:48:47.332Z,8.61
2018-12-02T03:51:14.748Z,8.57
2018-12-02T03:53:42.142Z,8.47
2018-12-02T03:56:09.556Z,8.37
2018-12-02T03:58:36.954Z,8.32
2018-12-02T04:01:04.386Z,8.25
2018-12-02T04:03:31.774Z,8.21
2018-12-02T04:05:59.193Z,8.13
2018-12-02T04:08:26.582Z,8.06
2018-12-02T04:10:53.992Z,7.97
2018-12-02T04:13:21.404Z,7.99
2018-12-02T04:15:48.792Z,7.99
2018-12-02T04:18:16.273Z,8.01
2018-12-02T04:20:43.675Z,8.00
2018-12-02T04:23:11.084Z,8.02
2018-12-02T04:25:38.518Z,7.98
2018-12-02T04:28:05.946Z,7.98
2018-12-02T04:30:33.367Z,7.97
2018-12-02T04:33:00.751Z,7.97
2018-12-02T04:35:28.151Z,7.98
2018-12-02T04:37:55.670Z,8.01
2018-12-02T04:40:23.136Z,8.04
2018-12-02T04:42:50.555Z,8.04
2018-12-02T04:45:18.119Z,7.99
2018-12-02T04:47:45.592Z,7.99
2018-12-02T04:50:13.006Z,7.96
2018-12-02T04:52:40.476Z,7.97
2018-12-02T04:55:07.873Z,7.97
2018-12-02T04:57:35.343Z,7.97
2018-12-02T05:00:02.745Z,8.00
2018-12-02T05:02:30.133Z,8.01
2018-12-02T05:04:57.538Z,7.99
2018-12-02T05:07:24.931Z,8.01
2018-12-02T05:09:52.345Z,7.96
2018-12-02T05:12:19.740Z,7.97
2018-12-02T05:14:47.213Z,8.01
2018-12-02T05:17:14.692Z,8.00
2018-12-02T05:19:43.018Z,8.03
2018-12-02T05:22:10.409Z,8.05
2018-12-02T05:24:37.833Z,8.06
2018-12-02T05:27:05.231Z,8.07
2018-12-02T05:29:32.886Z,8.12
2018-12-02T05:32:00.286Z,8.17
2018-12-02T05:34:27.682Z,8.23
2018-12-02T05:36:55.297Z,8.17
2018-12-02T05:39:22.689Z,8.15
2018-12-02T05:41:50.081Z,8.10
2018-12-02T05:44:17.476Z,8.12
2018-12-02T05:46:44.875Z,8.13
2018-12-02T05:49:12.336Z,8.05
2018-12-02T05:51:39.756Z,8.06
2018-12-02T05:54:07.176Z,7.99
2018-12-02T05:56:34.573Z,8.00
2018-12-02T05:59:02.351Z,8.01
2018-12-02T06:01:29.786Z,7.96
2018-12-02T06:03:57.359Z,7.91
2018-12-02T06:06:24.752Z,7.91
2018-12-02T06:08:52.282Z,7.88
2018-12-02T06:11:19.731Z,7.86
2018-12-02T06:13:47.156Z,7.84
2018-12-02T06:16:14.571Z,7.83
2018-12-02T06:18:41.996Z,7.79
2018-12-02T06:21:09.469Z,7.83
2018-12-02T06:23:36.847Z,7.86
2018-12-02T06:26:04.257Z,7.89
2018-12-02T06:28:31.651Z,8.00
2018-12-02T06:30:59.095Z,8.03
2018-12-02T06:33:26.518Z,8.02
2018-12-02T06:35:53.942Z,7.98
2018-12-02T06:38:21.544Z,7.99
2018-12-02T06:40:48.930Z,8.06
2018-12-02T06:43:16.349Z,8.12
2018-12-02T06:45:43.744Z,8.17
2018-12-02T06:48:11.185Z,8.30
2018-12-02T06:50:38.614Z,8.29
2018-12-02T06:53:06.001Z,8.34
2018-12-02T06:55:34.431Z,8.34
2018-12-02T06:58:03.889Z,8.38
2018-12-02T07:00:32.832Z,8.35
2018-12-02T07:03:00.975Z,8.25
2018-12-02T07:05:29.358Z,8.11
2018-12-02T07:07:57.384Z,8.09
2018-12-02T07:10:24.795Z,8.16
2018-12-02T07:12:52.215Z,8.17
2018-12-02T07:15:19.623Z,8.21
2018-12-02T07:17:48.048Z,8.32
2018-12-02T07:20:17.353Z,8.41
2018-12-02T07:22:45.725Z,8.47
2018-12-02T07:25:17.855Z,8.43
2018-12-02T07:27:45.269Z,8.35
2018-12-02T07:30:12.668Z,8.32
2018-12-02T07:32:40.067Z,8.35
2018-12-02T07:35:07.465Z,8.43
2018-12-02T07:37:34.892Z,8.56
2018-12-02T07:40:02.304Z,8.66
2018-12-02T07:42:29.775Z,8.61
2018-12-02T07:44:57.199Z,8.61
2018-12-02T07:47:24.585Z,8.63
2018-12-02T07:49:52.041Z,8.61
2018-12-02T07:52:19.435Z,8.71
2018-12-02T07:54:46.846Z,8.72
2018-12-02T07:57:14.244Z,8.73
2018-12-02T07:59:41.670Z,8.73
2018-12-02T08:02:09.109Z,8.72
2018-12-02T08:04:37.518Z,8.70
2018-12-02T08:07:05.041Z,8.78
2018-12-02T08:09:32.828Z,8.88
2018-12-02T08:12:00.305Z,8.89
2018-12-02T08:14:27.735Z,8.94
2018-12-02T08:16:55.218Z,8.93
2018-12-02T08:19:22.688Z,8.99
2018-12-02T08:21:50.111Z,8.99
2018-12-02T08:24:17.543Z,8.94
2018-12-02T08:26:44.955Z,8.81
2018-12-02T08:29:12.414Z,8.72
2018-12-02T08:31:39.868Z,8.70
2018-12-02T08:34:07.276Z,8.70
2018-12-02T08:36:34.692Z,8.80
2018-12-02T08:39:02.119Z,8.88
2018-12-02T08:41:30.197Z,8.83
2018-12-02T08:43:57.596Z,8.84
2018-12-02T08:46:25.115Z,8.92
2018-12-02T08:48:53.274Z,8.85
2018-12-02T08:51:20.222Z,8.87
2018-12-02T08:53:47.613Z,8.91
2018-12-02T08:56:15.015Z,8.94
2018-12-02T08:58:42.436Z,8.96
2018-12-02T09:01:10.190Z,8.96
2018-12-02T09:03:37.650Z,9.04
2018-12-02T09:06:05.880Z,8.99
2018-12-02T09:08:33.703Z,9.09
2018-12-02T09:11:01.113Z,9.12
2018-12-02T09:13:28.669Z,9.05
2018-12-02T09:15:56.235Z,9.01
2018-12-02T09:18:23.875Z,8.96
2018-12-02T09:20:51.432Z,9.02
2018-12-02T09:23:18.972Z,9.08
2018-12-02T09:25:46.416Z,9.18
2018-12-02T09:28:13.829Z,9.25
2018-12-02T09:30:41.220Z,9.36
2018-12-02T09:33:08.628Z,9.50
2018-12-02T09:35:36.085Z,9.50
2018-12-02T09:38:03.627Z,9.39
2018-12-02T09:40:31.053Z,9.31
2018-12-02T09:42:58.453Z,9.37
2018-12-02T09:45:25.915Z,9.40
2018-12-02T09:47:53.411Z,9.33
2018-12-02T09:50:20.816Z,9.25
2018-12-02T09:52:49.217Z,9.18
2018-12-02T09:55:16.737Z,9.24
2018-12-02T09:57:44.158Z,9.18
2018-12-02T10:00:11.577Z,9.18
2018-12-02T10:02:38.963Z,9.21
2018-12-02T10:05:06.462Z,9.27
2018-12-02T10:07:33.898Z,9.27
2018-12-02T10:10:01.373Z,9.27
2018-12-02T10:12:30.025Z,9.33
2018-12-02T10:14:57.432Z,9.29
2018-12-02T10:17:24.842Z,9.21
2018-12-02T10:19:53.306Z,9.25
2018-12-02T10:22:20.710Z,9.28
2018-12-02T10:24:48.111Z,9.41
2018-12-02T10:27:15.574Z,9.44
2018-12-02T10:29:43.081Z,9.48
2018-12-02T10:32:12.462Z,9.58
2018-12-02T10:34:38.961Z,9.67
2018-12-02T10:37:06.391Z,9.77
2018-12-02T10:39:33.777Z,9.79
2018-12-02T10:42:01.244Z,9.78
2018-12-02T10:44:28.786Z,9.76
2018-12-02T10:46:56.188Z,9.72
2018-12-02T10:49:23.701Z,9.75
2018-12-02T10:51:51.102Z,9.82
2018-12-02T10:54:18.522Z,9.89
2018-12-02T10:56:45.936Z,9.94
2018-12-02T10:59:14.100Z,9.89
2018-12-02T11:01:41.506Z,9.88
2018-12-02T11:04:08.912Z,9.95
2018-12-02T11:06:37.815Z,9.99
2018-12-02T11:09:06.163Z,9.98
2018-12-02T11:11:33.795Z,10.05
2018-12-02T11:14:02.137Z,10.14
2018-12-02T11:16:29.548Z,10.09
2018-12-02T11:18:57.014Z,10.06
2018-12-02T11:21:25.391Z,10.13
2018-12-02T11:23:52.790Z,10.14
2018-12-02T11:26:20.201Z,10.31
2018-12-02T11:28:47.644Z,10.45
2018-12-02T11:31:15.052Z,10.59
2018-12-02T11:33:42.547Z,10.63
2018-12-02T11:36:09.959Z,10.58
2018-12-02T11:38:37.767Z,10.50
2018-12-02T11:41:05.187Z,10.50
2018-12-02T11:43:32.683Z,10.53
2018-12-02T11:46:00.130Z,10.49
2018-12-02T11:48:27.537Z,10.49
2018-12-02T11:50:55.046Z,10.52
2018-12-02T11:53:22.456Z,10.54
2018-12-02T11:55:50.167Z,10.58
2018-12-02T11:58:17.578Z,10.61
2018-12-02T12:00:44.996Z,10.66
2018-12-02T12:03:12.838Z,10.64
2018-12-02T12:05:40.292Z,10.66
2018-12-02T12:08:09.487Z,10.75
2018-12-02T12:10:37.173Z,10.72
2018-12-02T12:13:04.569Z,10.67
2018-12-02T12:15:32.808Z,10.68
2018-12-02T12:18:00.372Z,10.76
2018-12-02T12:20:27.817Z,10.87
2018-12-02T12:22:55.240Z,10.96
2018-12-02T12:25:22.733Z,10.93
2018-12-02T12:27:50.155Z,10.95
2018-12-02T12:30:17.568Z,10.99
2018-12-02T12:32:44.972Z,10.89
2018-12-02T12:35:12.388Z,10.85
2018-12-02T12:37:40.041Z,10.79
2018-12-02T12:40:07.473Z,10.77
2018-12-02T12:42:34.869Z,10.65
2018-12-02T12:45:02.376Z,10.66
2018-12-02T12:47:29.779Z,10.69
2018-12-02T12:49:57.323Z,10.71
2018-12-02T12:52:24.795Z,10.75
2018-12-02T12:54:52.463Z,10.85
2018-12-02T12:57:20.336Z,10.95
2018-12-02T12:59:47.877Z,11.00
2018-12-02T13:02:15.485Z,11.05
2018-12-02T13:04:42.916Z,11.11
2018-12-02T13:07:10.345Z,11.09
2018-12-02T13:09:37.795Z,11.15
2018-12-02T13:12:05.509Z,11.15
2018-12-02T13:14:32.968Z,11.14
2018-12-02T13:17:00.376Z,11.15
2018-12-02T13:19:27.785Z,11.11
2018-12-02T13:21:57.860Z,11.12
2018-12-02T13:24:25.485Z,11.14
2018-12-02T13:26:52.896Z,11.03
2018-12-02T13:29:20.564Z,11.03
2018-12-02T13:31:50.443Z,11.06
2018-12-02T13:34:17.932Z,11.02
2018-12-02T13:36:45.338Z,11.05
2018-12-02T13:39:12.745Z,11.04
2018-12-02T13:41:40.160Z,11.01
2018-12-02T13:44:07.769Z,11.00
2018-12-02T13:46:35.184Z,11.05
2018-12-02T13:49:02.739Z,11.05
2018-12-02T13:51:30.137Z,11.07
2018-12-02T13:53:57.556Z,11.02
2018-12-02T13:56:25.048Z,11.03
2018-12-02T13:58:52.836Z,11.06
2018-12-02T14:01:20.244Z,11.10
2018-12-02T14:03:47.688Z,11.17
2018-12-02T14:06:15.231Z,11.23
2018-12-02T14:08:43.039Z,11.24
2018-12-02T14:11:10.593Z,11.13
2018-12-02T14:13:38.128Z,11.03
2018-12-02T14:16:05.533Z,10.99
2018-12-02T14:18:32.950Z,11.00
2018-12-02T14:21:00.420Z,11.00
2018-12-02T14:23:27.845Z,10.99
2018-12-02T14:25:55.257Z,11.01
2018-12-02T14:28:24.082Z,11.04
2018-12-02T14:30:53.318Z,11.13
2018-12-02T14:33:20.766Z,11.15
2018-12-02T14:35:48.247Z,11.09
2018-12-02T14:38:16.826Z,11.08
2018-12-02T14:40:44.238Z,11.18
2018-12-02T14:43:11.653Z,11.16
2018-12-02T14:45:39.088Z,11.14
2018-12-02T14:48:06.505Z,11.17
2018-12-02T14:50:33.963Z,11.17
2018-12-02T14:53:01.437Z,11.18
2018-12-02T14:55:28.917Z,11.19
2018-12-02T14:57:56.800Z,11.15
2018-12-02T15:00:24.202Z,11.12
2018-12-02T15:02:51.603Z,11.05
2018-12-02T15:05:20.383Z,10.97
2018-12-02T15:07:47.140Z,10.90
2018-12-02T15:10:14.634Z,10.86
2018-12-02T15:12:42.047Z,10.90
2018-12-02T15:15:09.504Z,10.93
2018-12-02T15:17:36.944Z,10.97
2018-12-02T15:20:04.344Z,10.97
2018-12-02T15:22:31.805Z,10.94
2018-12-02T15:24:59.337Z,10.88
2018-12-02T15:27:26.910Z,10.89
2018-12-02T15:29:54.338Z,10.85
2018-12-02T15:32:21.762Z,10.81
2018-12-02T15:34:49.216Z,10.75
2018-12-02T15:37:16.636Z,10.74
2018-12-02T15:39:47.781Z,10.71
2018-12-02T15:42:15.215Z,10.70
2018-12-02T15:44:43.247Z,10.72
2018-12-02T15:47:10.834Z,10.69
2018-12-02T15:49:38.275Z,10.67
2018-12-02T15:52:05.688Z,10.74
2018-12-02T15:54:33.824Z,10.76
2018-12-02T15:57:01.279Z,10.78
2018-12-02T15:59:28.680Z,10.79
2018-12-02T16:01:57.193Z,10.80
2018-12-02T16:04:24.671Z,10.88
2018-12-02T16:06:52.173Z,10.92
2018-12-02T16:09:19.632Z,10.92
2018-12-02T16:11:47.045Z,10.98
2018-12-02T16:14:14.487Z,10.99
2018-12-02T16:16:41.929Z,10.96
2018-12-02T16:19:09.332Z,10.92
2018-12-02T16:21:36.805Z,10.96
2018-12-02T16:24:04.351Z,10.98
2018-12-02T16:26:31.798Z,10.99
2018-12-02T16:28:59.294Z,11.12
2018-12-02T16:31:26.804Z,11.18
2018-12-02T16:33:54.377Z,11.14
2018-12-02T16:36:22.041Z,11.23
2018-12-02T16:38:49.533Z,11.28
2018-12-02T16:41:17.130Z,11.31
2018-12-02T16:43:44.817Z,11.29
2018-12-02T16:46:13.159Z,11.21
2018-12-02T16:48:40.759Z,11.14
2018-12-02T16:51:08.173Z,11.22
2018-12-02T16:53:35.862Z,11.22
2018-12-02T16:56:03.319Z,11.27
2018-12-02T16:58:30.917Z,11.30
2018-12-02T17:00:58.360Z,11.29
2018-12-02T17:03:26.613Z,11.31
2018-12-02T17:05:54.076Z,11.37
2018-12-02T17:08:21.533Z,11.40
2018-12-02T17:10:50.392Z,11.40
2018-12-02T17:13:16.621Z,11.45
2018-12-02T17:15:44.517Z,11.51
2018-12-02T17:18:11.984Z,11.53
2018-12-02T17:20:39.788Z,11.52
2018-12-02T17:23:07.194Z,11.52
2018-12-02T17:25:34.639Z,11.47
2018-12-02T17:28:02.109Z,11.44
2018-12-02T17:30:29.550Z,11.42
2018-12-02T17:32:56.947Z,11.38
2018-12-02T17:35:24.517Z,11.35
2018-12-02T17:37:51.926Z,11.37
2018-12-02T17:40:19.339Z,11.35
2018-12-02T17:42:46.740Z,11.34
2018-12-02T17:45:14.179Z,11.31
2018-12-02T17:47:41.662Z,11.29
2018-12-02T17:50:09.422Z,11.27
2018-12-02T17:52:36.887Z,11.25
2018-12-02T17:55:04.418Z,11.26
2018-12-02T17:57:31.906Z,11.29
2018-12-02T18:00:00.150Z,11.32
2018-12-02T18:02:27.632Z,11.31
2018-12-02T18:04:55.055Z,11.30
2018-12-02T18:07:22.580Z,11.30
2018-12-02T18:09:50.146Z,11.33
2018-12-02T18:12:18.052Z,11.37
2018-12-02T18:14:45.505Z,11.42
2018-12-02T18:17:12.899Z,11.42
2018-12-02T18:19:40.429Z,11.40
2018-12-02T18:22:08.079Z,11.39
2018-12-02T18:24:36.831Z,11.46
2018-12-02T18:27:04.369Z,11.49
2018-12-02T18:29:31.885Z,11.44
2018-12-02T18:31:59.470Z,11.47
2018-12-02T18:34:26.936Z,11.53
2018-12-02T18:36:54.444Z,11.59
2018-12-02T18:39:21.870Z,11.55
2018-12-02T18:41:49.588Z,11.50
2018-12-02T18:44:17.060Z,11.51
2018-12-02T18:46:44.441Z,11.54
2018-12-02T18:49:11.975Z,11.55
2018-12-02T18:51:39.834Z,11.53
2018-12-02T18:54:07.327Z,11.54
2018-12-02T18:56:34.903Z,11.61
2018-12-02T18:59:02.641Z,11.66
2018-12-02T19:01:30.051Z,11.73
2018-12-02T19:03:57.947Z,11.67
2018-12-02T19:06:28.239Z,11.55
2018-12-02T19:08:53.012Z,11.48
2018-12-02T19:11:21.587Z,11.55
2018-12-02T19:13:48.045Z,11.67
2018-12-02T19:16:15.493Z,11.74
2018-12-02T19:18:43.464Z,11.81
2018-12-02T19:21:10.879Z,11.83
2018-12-02T19:23:38.877Z,11.73
2018-12-02T19:26:06.477Z,11.64
2018-12-02T19:28:33.951Z,11.64
2018-12-02T19:31:01.400Z,11.62
2018-12-02T19:33:29.819Z,11.62
2018-12-02T19:35:57.725Z,11.62
2018-12-02T19:38:25.134Z,11.62
2018-12-02T19:40:52.571Z,11.64
2018-12-02T19:43:20.976Z,11.66
2018-12-02T19:45:49.880Z,11.66
2018-12-02T19:48:17.351Z,11.70
2018-12-02T19:50:44.753Z,11.69
2018-12-02T19:53:12.231Z,11.66
2018-12-02T19:55:39.972Z,11.61
2018-12-02T19:58:07.759Z,11.59
2018-12-02T20:00:35.159Z,11.58
2018-12-02T20:03:02.634Z,11.57
2018-12-02T20:05:30.064Z,11.58
2018-12-02T20:07:57.513Z,11.62
2018-12-02T20:10:24.938Z,11.57
2018-12-02T20:12:52.607Z,11.50
2018-12-02T20:15:20.081Z,11.48
2018-12-02T20:17:47.494Z,11.45
2018-12-02T20:20:20.556Z,11.47
2018-12-02T20:22:48.085Z,11.50
2018-12-02T20:25:15.533Z,11.60
2018-12-02T20:27:43.181Z,11.63
2018-12-02T20:30:10.991Z,11.70
2018-12-02T20:32:38.425Z,11.69
2018-12-02T20:35:06.024Z,11.65
2018-12-02T20:37:33.577Z,11.63
2018-12-02T20:40:01.005Z,11.64
2018-12-02T20:42:28.541Z,11.62
2018-12-02T20:44:55.953Z,11.63
2018-12-02T20:47:24.265Z,11.65
2018-12-02T20:49:51.700Z,11.69
2018-12-02T20:52:19.505Z,11.71
2018-12-02T20:54:47.111Z,11.68
2018-12-02T20:57:14.518Z,11.69
2018-12-02T20:59:41.974Z,11.72
2018-12-02T21:02:11.134Z,11.75
2018-12-02T21:04:38.671Z,11.80
2018-12-02T21:07:06.093Z,11.83
2018-12-02T21:09:33.885Z,11.89
2018-12-02T21:12:01.351Z,11.92
2018-12-02T21:14:28.750Z,11.93
2018-12-02T21:16:56.375Z,11.95
2018-12-02T21:19:23.774Z,11.95
2018-12-02T21:21:51.722Z,11.97
2018-12-02T21:24:19.138Z,11.99
2018-12-02T21:26:47.003Z,12.02
2018-12-02T21:29:14.421Z,12.01
2018-12-02T21:31:41.875Z,12.02
2018-12-02T21:34:10.144Z,12.06
2018-12-02T21:36:37.811Z,12.07
2018-12-02T21:39:05.469Z,12.11
2018-12-02T21:41:33.123Z,12.08
2018-12-02T21:44:00.643Z,12.03
2018-12-02T21:46:28.135Z,12.05
2018-12-02T21:48:55.555Z,11.99
2018-12-02T21:51:22.991Z,11.98
2018-12-02T21:53:50.399Z,11.97
2018-12-02T21:56:17.818Z,11.96
2018-12-02T21:58:45.223Z,11.93
2018-12-02T22:01:12.773Z,11.85
2018-12-02T22:03:40.171Z,11.81
2018-12-02T22:06:07.828Z,11.84
2018-12-02T22:08:35.231Z,11.94
2018-12-02T22:11:02.633Z,11.97
2018-12-02T22:13:30.110Z,12.00
2018-12-02T22:15:57.502Z,12.01
2018-12-02T22:18:24.956Z,12.04
2018-12-02T22:20:52.389Z,12.12
2018-12-02T22:23:19.883Z,12.16
2018-12-02T22:25:47.839Z,12.18
2018-12-02T22:28:15.275Z,12.20
2018-12-02T22:30:43.372Z,12.22
2018-12-02T22:33:10.759Z,12.29
2018-12-02T22:35:38.201Z,12.32
2018-12-02T22:38:05.628Z,12.34
2018-12-02T22:40:33.025Z,12.34
2018-12-02T22:43:00.699Z,12.37
2018-12-02T22:45:28.211Z,12.36
2018-12-02T22:47:55.641Z,12.39
2018-12-02T22:50:23.092Z,12.37
2018-12-02T22:52:50.494Z,12.41
2018-12-02T22:55:17.941Z,12.40
2018-12-02T22:57:45.402Z,12.41
2018-12-02T23:00:12.788Z,12.37
2018-12-02T23:02:40.231Z,12.36
2018-12-02T23:05:07.646Z,12.37
2018-12-02T23:07:35.083Z,12.40
2018-12-02T23:10:02.506Z,12.38
2018-12-02T23:12:29.903Z,12.37
2018-12-02T23:14:57.315Z,12.37
2018-12-02T23:17:24.731Z,12.37
2018-12-02T23:19:52.128Z,12.33
2018-12-02T23:22:19.543Z,12.34
2018-12-02T23:24:46.996Z,12.34
2018-12-02T23:27:14.403Z,12.32
2018-12-02T23:29:41.833Z,12.30
2018-12-02T23:32:09.239Z,12.32
2018-12-02T23:34:37.396Z,12.38
2018-12-02T23:37:04.840Z,12.41
2018-12-02T23:39:32.242Z,12.43
2018-12-02T23:41:59.641Z,12.45
2018-12-02T23:44:27.036Z,12.48
2018-12-02T23:46:54.440Z,12.49
2018-12-02T23:49:21.867Z,12.49
2018-12-02T23:51:49.268Z,12.50
2018-12-02T23:54:16.801Z,12.51
2018-12-02T23:56:44.375Z,12.52
2018-12-02T23:59:11.795Z,12.52
